Ararat, Virginia
Current Conditions -  °F | °C
As of 5:35 AM on Sunday 26 Oct 2014 (Local Time) from KMWK Reporting Station
Clear Clear  
Wind Chill: 58°   Ceiling: Unl
Heat Index: 58°   Visibility: 10mi
Dew Point: 51°   Wind: 3mph
Humidity: 80%   Direction: 230°SW
Pressure: 29.88"   Gusts: NA
Location:  36.6°N, 80.51°W
Report Text: KMWK 260935Z AUTO 23003KT 10SM CLR 14/11 A2988 RMK AO2 T01420108
Loading
Personal Weather Stations






























Interactive Weather Map New forecast layout! Learn more

10-Day Weather Forecast

Advertisements
Track Severe Weather on mobile